sensor_id;sensor_type;location;lat;lon;timestamp;P1;durP1;ratioP1;P2;durP2;ratioP2
1719;SDS011;857;52.872;9.692;2023-04-03T00:00:34;4.77;;;1.30;;
1719;SDS011;857;52.872;9.692;2023-04-03T00:03:03;4.07;;;1.13;;
1719;SDS011;857;52.872;9.692;2023-04-03T00:05:31;4.27;;;1.57;;
1719;SDS011;857;52.872;9.692;2023-04-03T00:07:59;1.53;;;1.10;;
1719;SDS011;857;52.872;9.692;2023-04-03T00:10:27;4.30;;;1.70;;
1719;SDS011;857;52.872;9.692;2023-04-03T00:12:55;2.57;;;1.37;;
1719;SDS011;857;52.872;9.692;2023-04-03T00:15:23;2.20;;;1.20;;
1719;SDS011;857;52.872;9.692;2023-04-03T00:17:51;4.33;;;1.37;;
1719;SDS011;857;52.872;9.692;2023-04-03T00:20:20;2.20;;;1.10;;
1719;SDS011;857;52.872;9.692;2023-04-03T00:22:47;4.63;;;1.50;;
1719;SDS011;857;52.872;9.692;2023-04-03T00:25:15;3.00;;;1.20;;
1719;SDS011;857;52.872;9.692;2023-04-03T00:27:43;6.10;;;1.53;;
1719;SDS011;857;52.872;9.692;2023-04-03T00:30:13;3.43;;;1.20;;
1719;SDS011;857;52.872;9.692;2023-04-03T00:32:41;2.90;;;1.30;;
1719;SDS011;857;52.872;9.692;2023-04-03T00:35:09;3.70;;;1.77;;
1719;SDS011;857;52.872;9.692;2023-04-03T00:37:38;3.50;;;1.87;;
1719;SDS011;857;52.872;9.692;2023-04-03T00:40:08;5.00;;;2.50;;
1719;SDS011;857;52.872;9.692;2023-04-03T00:42:36;7.80;;;2.70;;
1719;SDS011;857;52.872;9.692;2023-04-03T00:45:22;3.83;;;2.10;;
1719;SDS011;857;52.872;9.692;2023-04-03T00:47:50;7.20;;;2.53;;
1719;SDS011;857;52.872;9.692;2023-04-03T00:50:18;3.53;;;1.90;;
1719;SDS011;857;52.872;9.692;2023-04-03T00:52:48;3.23;;;1.50;;
1719;SDS011;857;52.872;9.692;2023-04-03T00:55:15;1.83;;;1.43;;
1719;SDS011;857;52.872;9.692;2023-04-03T00:57:43;4.57;;;1.80;;
1719;SDS011;857;52.872;9.692;2023-04-03T01:00:13;3.03;;;1.50;;
1719;SDS011;857;52.872;9.692;2023-04-03T01:02:42;3.10;;;1.53;;
1719;SDS011;857;52.872;9.692;2023-04-03T01:05:12;5.77;;;1.77;;
1719;SDS011;857;52.872;9.692;2023-04-03T01:07:40;3.20;;;1.30;;
1719;SDS011;857;52.872;9.692;2023-04-03T01:10:10;4.93;;;1.67;;
1719;SDS011;857;52.872;9.692;2023-04-03T01:12:39;3.50;;;1.53;;
1719;SDS011;857;52.872;9.692;2023-04-03T01:15:08;4.20;;;1.57;;
1719;SDS011;857;52.872;9.692;2023-04-03T01:17:37;5.73;;;1.47;;
1719;SDS011;857;52.872;9.692;2023-04-03T01:20:23;2.70;;;1.10;;
1719;SDS011;857;52.872;9.692;2023-04-03T01:22:54;3.80;;;1.00;;
1719;SDS011;857;52.872;9.692;2023-04-03T01:25:25;2.63;;;1.33;;
1719;SDS011;857;52.872;9.692;2023-04-03T01:27:53;2.60;;;1.00;;
1719;SDS011;857;52.872;9.692;2023-04-03T01:30:22;4.10;;;1.57;;
1719;SDS011;857;52.872;9.692;2023-04-03T01:32:53;5.63;;;1.30;;
1719;SDS011;857;52.872;9.692;2023-04-03T01:35:20;4.80;;;1.60;;
1719;SDS011;857;52.872;9.692;2023-04-03T01:37:48;1.90;;;1.00;;
1719;SDS011;857;52.872;9.692;2023-04-03T01:40:16;4.30;;;1.03;;
1719;SDS011;857;52.872;9.692;2023-04-03T01:42:45;2.13;;;1.00;;
1719;SDS011;857;52.872;9.692;2023-04-03T01:45:13;3.03;;;1.63;;
1719;SDS011;857;52.872;9.692;2023-04-03T01:47:41;1.97;;;1.13;;
1719;SDS011;857;52.872;9.692;2023-04-03T01:50:10;3.93;;;1.57;;
1719;SDS011;857;52.872;9.692;2023-04-03T01:52:38;4.63;;;1.37;;
1719;SDS011;857;52.872;9.692;2023-04-03T01:55:06;2.93;;;1.50;;
1719;SDS011;857;52.872;9.692;2023-04-03T01:57:34;7.13;;;1.80;;
1719;SDS011;857;52.872;9.692;2023-04-03T02:00:02;4.60;;;1.80;;
1719;SDS011;857;52.872;9.692;2023-04-03T02:02:38;3.00;;;1.83;;
1719;SDS011;857;52.872;9.692;2023-04-03T02:05:06;2.63;;;1.73;;
1719;SDS011;857;52.872;9.692;2023-04-03T02:07:35;5.53;;;2.07;;
1719;SDS011;857;52.872;9.692;2023-04-03T02:10:03;1.70;;;0.97;;
1719;SDS011;857;52.872;9.692;2023-04-03T02:12:31;3.60;;;1.27;;
1719;SDS011;857;52.872;9.692;2023-04-03T02:14:59;3.50;;;1.23;;
1719;SDS011;857;52.872;9.692;2023-04-03T02:17:27;3.57;;;1.20;;
1719;SDS011;857;52.872;9.692;2023-04-03T02:19:54;5.27;;;1.30;;
1719;SDS011;857;52.872;9.692;2023-04-03T02:22:23;7.40;;;1.53;;
1719;SDS011;857;52.872;9.692;2023-04-03T02:24:52;3.30;;;1.13;;
1719;SDS011;857;52.872;9.692;2023-04-03T02:27:19;3.77;;;1.23;;
1719;SDS011;857;52.872;9.692;2023-04-03T02:29:48;3.47;;;1.00;;
1719;SDS011;857;52.872;9.692;2023-04-03T02:32:15;6.03;;;1.53;;
1719;SDS011;857;52.872;9.692;2023-04-03T02:34:43;2.63;;;1.60;;
1719;SDS011;857;52.872;9.692;2023-04-03T02:37:13;3.13;;;1.33;;
1719;SDS011;857;52.872;9.692;2023-04-03T02:39:42;6.50;;;1.80;;
1719;SDS011;857;52.872;9.692;2023-04-03T02:42:11;3.23;;;0.90;;
1719;SDS011;857;52.872;9.692;2023-04-03T02:44:39;3.60;;;1.53;;
1719;SDS011;857;52.872;9.692;2023-04-03T02:47:08;2.20;;;0.73;;
1719;SDS011;857;52.872;9.692;2023-04-03T02:49:36;3.43;;;1.93;;
1719;SDS011;857;52.872;9.692;2023-04-03T02:52:04;6.37;;;2.37;;
1719;SDS011;857;52.872;9.692;2023-04-03T02:54:32;5.13;;;2.80;;
1719;SDS011;857;52.872;9.692;2023-04-03T02:57:03;4.23;;;2.77;;
1719;SDS011;857;52.872;9.692;2023-04-03T02:59:32;6.43;;;2.80;;
1719;SDS011;857;52.872;9.692;2023-04-03T03:02:00;3.40;;;1.80;;
1719;SDS011;857;52.872;9.692;2023-04-03T03:04:28;4.60;;;1.90;;
1719;SDS011;857;52.872;9.692;2023-04-03T03:06:56;2.93;;;1.53;;
1719;SDS011;857;52.872;9.692;2023-04-03T03:09:24;2.67;;;1.30;;
1719;SDS011;857;52.872;9.692;2023-04-03T03:11:52;3.73;;;1.57;;
1719;SDS011;857;52.872;9.692;2023-04-03T03:14:19;3.67;;;1.27;;
1719;SDS011;857;52.872;9.692;2023-04-03T03:16:48;3.43;;;1.50;;
1719;SDS011;857;52.872;9.692;2023-04-03T03:19:16;4.73;;;1.80;;
1719;SDS011;857;52.872;9.692;2023-04-03T03:21:44;3.00;;;1.70;;
1719;SDS011;857;52.872;9.692;2023-04-03T03:24:12;5.10;;;1.30;;
1719;SDS011;857;52.872;9.692;2023-04-03T03:26:42;3.77;;;1.40;;
1719;SDS011;857;52.872;9.692;2023-04-03T03:29:10;2.37;;;1.40;;
1719;SDS011;857;52.872;9.692;2023-04-03T03:31:38;6.40;;;1.50;;
1719;SDS011;857;52.872;9.692;2023-04-03T03:34:08;3.13;;;1.33;;
1719;SDS011;857;52.872;9.692;2023-04-03T03:36:35;2.77;;;1.70;;
1719;SDS011;857;52.872;9.692;2023-04-03T03:39:03;5.80;;;1.40;;
1719;SDS011;857;52.872;9.692;2023-04-03T03:41:31;3.37;;;1.57;;
1719;SDS011;857;52.872;9.692;2023-04-03T03:43:59;3.70;;;1.33;;
1719;SDS011;857;52.872;9.692;2023-04-03T03:46:29;4.03;;;1.27;;
1719;SDS011;857;52.872;9.692;2023-04-03T03:48:57;4.83;;;1.43;;
1719;SDS011;857;52.872;9.692;2023-04-03T03:51:26;4.47;;;1.80;;
1719;SDS011;857;52.872;9.692;2023-04-03T03:53:55;2.47;;;1.43;;
1719;SDS011;857;52.872;9.692;2023-04-03T03:56:23;3.40;;;1.40;;
1719;SDS011;857;52.872;9.692;2023-04-03T03:58:51;4.63;;;1.87;;
1719;SDS011;857;52.872;9.692;2023-04-03T04:01:20;7.53;;;1.73;;
1719;SDS011;857;52.872;9.692;2023-04-03T04:03:48;3.97;;;1.50;;
1719;SDS011;857;52.872;9.692;2023-04-03T04:06:20;3.17;;;1.77;;
1719;SDS011;857;52.872;9.692;2023-04-03T04:08:49;2.73;;;1.70;;
1719;SDS011;857;52.872;9.692;2023-04-03T04:11:17;6.23;;;2.53;;
1719;SDS011;857;52.872;9.692;2023-04-03T04:13:46;8.40;;;1.90;;
1719;SDS011;857;52.872;9.692;2023-04-03T04:16:16;2.37;;;1.60;;
1719;SDS011;857;52.872;9.692;2023-04-03T04:18:44;5.33;;;2.13;;
1719;SDS011;857;52.872;9.692;2023-04-03T04:21:11;4.20;;;2.07;;
1719;SDS011;857;52.872;9.692;2023-04-03T04:23:40;4.83;;;1.83;;
1719;SDS011;857;52.872;9.692;2023-04-03T04:26:09;6.23;;;2.23;;
1719;SDS011;857;52.872;9.692;2023-04-03T04:28:38;2.10;;;1.57;;
1719;SDS011;857;52.872;9.692;2023-04-03T04:31:06;3.60;;;1.60;;
1719;SDS011;857;52.872;9.692;2023-04-03T04:33:35;3.27;;;1.63;;
1719;SDS011;857;52.872;9.692;2023-04-03T04:36:04;5.60;;;2.43;;
1719;SDS011;857;52.872;9.692;2023-04-03T04:38:32;7.83;;;2.93;;
1719;SDS011;857;52.872;9.692;2023-04-03T04:41:01;3.77;;;2.07;;
1719;SDS011;857;52.872;9.692;2023-04-03T04:43:30;5.53;;;2.10;;
1719;SDS011;857;52.872;9.692;2023-04-03T04:46:01;6.90;;;2.03;;
1719;SDS011;857;52.872;9.692;2023-04-03T04:48:32;5.00;;;1.80;;
1719;SDS011;857;52.872;9.692;2023-04-03T04:51:00;5.67;;;2.30;;
1719;SDS011;857;52.872;9.692;2023-04-03T04:53:28;5.63;;;2.97;;
1719;SDS011;857;52.872;9.692;2023-04-03T04:55:56;9.53;;;2.00;;
1719;SDS011;857;52.872;9.692;2023-04-03T04:58:24;7.03;;;1.90;;
1719;SDS011;857;52.872;9.692;2023-04-03T05:00:59;3.83;;;1.70;;
1719;SDS011;857;52.872;9.692;2023-04-03T05:03:27;5.97;;;1.90;;
1719;SDS011;857;52.872;9.692;2023-04-03T05:05:55;4.10;;;1.70;;
1719;SDS011;857;52.872;9.692;2023-04-03T05:08:23;4.00;;;1.83;;
1719;SDS011;857;52.872;9.692;2023-04-03T05:10:51;7.27;;;1.83;;
1719;SDS011;857;52.872;9.692;2023-04-03T05:13:19;3.50;;;2.07;;
1719;SDS011;857;52.872;9.692;2023-04-03T05:15:47;5.80;;;2.50;;
1719;SDS011;857;52.872;9.692;2023-04-03T05:18:17;5.17;;;2.23;;
1719;SDS011;857;52.872;9.692;2023-04-03T05:20:45;4.40;;;2.30;;
1719;SDS011;857;52.872;9.692;2023-04-03T05:23:17;10.13;;;2.63;;
1719;SDS011;857;52.872;9.692;2023-04-03T05:25:46;3.00;;;2.00;;
1719;SDS011;857;52.872;9.692;2023-04-03T05:28:14;4.17;;;2.13;;
1719;SDS011;857;52.872;9.692;2023-04-03T05:30:43;6.27;;;1.97;;
1719;SDS011;857;52.872;9.692;2023-04-03T05:33:11;3.10;;;2.03;;
1719;SDS011;857;52.872;9.692;2023-04-03T05:35:49;4.10;;;2.13;;
1719;SDS011;857;52.872;9.692;2023-04-03T05:38:22;3.97;;;2.47;;
1719;SDS011;857;52.872;9.692;2023-04-03T05:40:51;6.37;;;2.07;;
1719;SDS011;857;52.872;9.692;2023-04-03T05:43:19;4.30;;;2.53;;
1719;SDS011;857;52.872;9.692;2023-04-03T05:45:50;5.60;;;1.70;;
1719;SDS011;857;52.872;9.692;2023-04-03T05:48:19;5.70;;;2.80;;
1719;SDS011;857;52.872;9.692;2023-04-03T05:50:48;4.60;;;2.27;;
1719;SDS011;857;52.872;9.692;2023-04-03T05:53:23;5.10;;;1.87;;
1719;SDS011;857;52.872;9.692;2023-04-03T05:55:53;4.93;;;2.30;;
1719;SDS011;857;52.872;9.692;2023-04-03T05:58:21;8.60;;;2.30;;
1719;SDS011;857;52.872;9.692;2023-04-03T06:00:51;9.50;;;2.40;;
1719;SDS011;857;52.872;9.692;2023-04-03T06:03:18;4.50;;;1.87;;
1719;SDS011;857;52.872;9.692;2023-04-03T06:05:46;3.70;;;2.33;;
1719;SDS011;857;52.872;9.692;2023-04-03T06:08:19;6.80;;;3.57;;
1719;SDS011;857;52.872;9.692;2023-04-03T06:10:47;5.37;;;2.40;;
1719;SDS011;857;52.872;9.692;2023-04-03T06:13:16;4.43;;;2.30;;
1719;SDS011;857;52.872;9.692;2023-04-03T06:15:43;6.73;;;2.20;;
1719;SDS011;857;52.872;9.692;2023-04-03T06:18:12;3.90;;;1.47;;
1719;SDS011;857;52.872;9.692;2023-04-03T06:20:39;4.50;;;1.93;;
1719;SDS011;857;52.872;9.692;2023-04-03T06:23:07;3.60;;;1.93;;
1719;SDS011;857;52.872;9.692;2023-04-03T06:25:37;3.80;;;2.13;;
1719;SDS011;857;52.872;9.692;2023-04-03T06:28:05;3.47;;;2.27;;
1719;SDS011;857;52.872;9.692;2023-04-03T06:30:34;5.70;;;2.53;;
1719;SDS011;857;52.872;9.692;2023-04-03T06:33:02;4.33;;;2.70;;
1719;SDS011;857;52.872;9.692;2023-04-03T06:35:30;6.43;;;2.00;;
1719;SDS011;857;52.872;9.692;2023-04-03T06:38:00;3.00;;;2.07;;
1719;SDS011;857;52.872;9.692;2023-04-03T06:40:29;4.30;;;2.60;;
1719;SDS011;857;52.872;9.692;2023-04-03T06:42:58;4.07;;;1.60;;
1719;SDS011;857;52.872;9.692;2023-04-03T06:45:26;3.53;;;2.40;;
1719;SDS011;857;52.872;9.692;2023-04-03T06:47:54;4.50;;;1.60;;
1719;SDS011;857;52.872;9.692;2023-04-03T06:50:21;6.90;;;2.40;;
1719;SDS011;857;52.872;9.692;2023-04-03T06:52:49;4.77;;;2.43;;
1719;SDS011;857;52.872;9.692;2023-04-03T06:55:17;2.97;;;1.80;;
1719;SDS011;857;52.872;9.692;2023-04-03T06:57:45;4.13;;;1.80;;
1719;SDS011;857;52.872;9.692;2023-04-03T07:00:14;4.33;;;1.83;;
1719;SDS011;857;52.872;9.692;2023-04-03T07:02:42;5.80;;;2.20;;
1719;SDS011;857;52.872;9.692;2023-04-03T07:05:10;3.47;;;2.10;;
1719;SDS011;857;52.872;9.692;2023-04-03T07:07:38;2.97;;;1.60;;
1719;SDS011;857;52.872;9.692;2023-04-03T07:10:07;2.30;;;1.40;;
1719;SDS011;857;52.872;9.692;2023-04-03T07:12:35;2.63;;;1.33;;
1719;SDS011;857;52.872;9.692;2023-04-03T07:15:03;1.40;;;1.03;;
1719;SDS011;857;52.872;9.692;2023-04-03T07:17:33;3.33;;;1.47;;
1719;SDS011;857;52.872;9.692;2023-04-03T07:20:01;3.63;;;1.70;;
1719;SDS011;857;52.872;9.692;2023-04-03T07:22:30;3.73;;;1.80;;
1719;SDS011;857;52.872;9.692;2023-04-03T07:24:58;3.63;;;1.30;;
1719;SDS011;857;52.872;9.692;2023-04-03T07:27:27;5.63;;;1.07;;
1719;SDS011;857;52.872;9.692;2023-04-03T07:29:54;5.43;;;1.10;;
1719;SDS011;857;52.872;9.692;2023-04-03T07:32:22;2.10;;;1.00;;
1719;SDS011;857;52.872;9.692;2023-04-03T07:34:51;1.23;;;1.13;;
1719;SDS011;857;52.872;9.692;2023-04-03T07:37:19;1.40;;;0.80;;
1719;SDS011;857;52.872;9.692;2023-04-03T07:39:47;5.33;;;1.07;;
1719;SDS011;857;52.872;9.692;2023-04-03T07:42:16;2.70;;;1.30;;
1719;SDS011;857;52.872;9.692;2023-04-03T07:44:44;1.13;;;0.70;;
1719;SDS011;857;52.872;9.692;2023-04-03T07:47:11;4.33;;;1.27;;
1719;SDS011;857;52.872;9.692;2023-04-03T07:49:41;1.13;;;1.00;;
1719;SDS011;857;52.872;9.692;2023-04-03T07:52:10;2.30;;;1.00;;
1719;SDS011;857;52.872;9.692;2023-04-03T07:54:40;2.90;;;0.97;;
1719;SDS011;857;52.872;9.692;2023-04-03T07:57:07;2.93;;;1.33;;
1719;SDS011;857;52.872;9.692;2023-04-03T07:59:35;0.90;;;0.80;;
1719;SDS011;857;52.872;9.692;2023-04-03T08:02:03;2.70;;;0.87;;
1719;SDS011;857;52.872;9.692;2023-04-03T08:04:31;3.30;;;0.90;;
1719;SDS011;857;52.872;9.692;2023-04-03T08:06:59;1.70;;;1.00;;
1719;SDS011;857;52.872;9.692;2023-04-03T08:09:28;3.20;;;0.87;;
1719;SDS011;857;52.872;9.692;2023-04-03T08:11:55;3.13;;;1.03;;
1719;SDS011;857;52.872;9.692;2023-04-03T08:14:23;1.30;;;0.77;;
1719;SDS011;857;52.872;9.692;2023-04-03T08:16:51;1.33;;;0.80;;
1719;SDS011;857;52.872;9.692;2023-04-03T08:19:19;1.97;;;0.73;;
1719;SDS011;857;52.872;9.692;2023-04-03T08:21:47;2.60;;;1.00;;
1719;SDS011;857;52.872;9.692;2023-04-03T08:24:14;2.30;;;0.63;;
1719;SDS011;857;52.872;9.692;2023-04-03T08:26:43;2.40;;;0.90;;
1719;SDS011;857;52.872;9.692;2023-04-03T08:29:11;1.10;;;0.67;;
1719;SDS011;857;52.872;9.692;2023-04-03T08:31:39;1.33;;;0.90;;
1719;SDS011;857;52.872;9.692;2023-04-03T08:34:06;4.30;;;1.07;;
1719;SDS011;857;52.872;9.692;2023-04-03T08:36:34;1.73;;;0.67;;
1719;SDS011;857;52.872;9.692;2023-04-03T08:39:02;0.80;;;0.60;;
1719;SDS011;857;52.872;9.692;2023-04-03T08:41:32;4.80;;;0.90;;
1719;SDS011;857;52.872;9.692;2023-04-03T08:44:15;1.10;;;0.70;;
1719;SDS011;857;52.872;9.692;2023-04-03T08:46:52;1.27;;;0.80;;
1719;SDS011;857;52.872;9.692;2023-04-03T08:49:24;1.50;;;0.90;;
1719;SDS011;857;52.872;9.692;2023-04-03T08:51:54;2.43;;;0.70;;
1719;SDS011;857;52.872;9.692;2023-04-03T08:54:28;4.00;;;1.03;;
1719;SDS011;857;52.872;9.692;2023-04-03T08:56:56;1.50;;;0.63;;
1719;SDS011;857;52.872;9.692;2023-04-03T08:59:28;1.30;;;0.83;;
1719;SDS011;857;52.872;9.692;2023-04-03T09:01:57;1.73;;;0.60;;
1719;SDS011;857;52.872;9.692;2023-04-03T09:04:25;2.60;;;0.90;;
1719;SDS011;857;52.872;9.692;2023-04-03T09:06:54;0.73;;;0.60;;
1719;SDS011;857;52.872;9.692;2023-04-03T09:09:25;1.90;;;0.57;;
1719;SDS011;857;52.872;9.692;2023-04-03T09:11:57;2.47;;;0.80;;
1719;SDS011;857;52.872;9.692;2023-04-03T09:14:29;1.83;;;0.60;;
1719;SDS011;857;52.872;9.692;2023-04-03T09:17:02;1.60;;;0.60;;
1719;SDS011;857;52.872;9.692;2023-04-03T09:19:33;2.77;;;1.07;;
1719;SDS011;857;52.872;9.692;2023-04-03T09:22:09;1.13;;;0.70;;
1719;SDS011;857;52.872;9.692;2023-04-03T09:24:39;4.73;;;0.77;;
1719;SDS011;857;52.872;9.692;2023-04-03T09:27:07;1.67;;;0.60;;
1719;SDS011;857;52.872;9.692;2023-04-03T09:29:39;1.23;;;0.67;;
1719;SDS011;857;52.872;9.692;2023-04-03T09:32:17;2.57;;;0.83;;
1719;SDS011;857;52.872;9.692;2023-04-03T09:34:45;1.60;;;0.77;;
1719;SDS011;857;52.872;9.692;2023-04-03T09:37:21;2.07;;;0.67;;
1719;SDS011;857;52.872;9.692;2023-04-03T09:40:00;0.87;;;0.50;;
1719;SDS011;857;52.872;9.692;2023-04-03T09:42:30;2.27;;;1.43;;
1719;SDS011;857;52.872;9.692;2023-04-03T09:45:00;0.70;;;0.60;;
1719;SDS011;857;52.872;9.692;2023-04-03T09:47:28;1.27;;;0.50;;
1719;SDS011;857;52.872;9.692;2023-04-03T09:50:10;1.60;;;0.87;;
1719;SDS011;857;52.872;9.692;2023-04-03T09:52:45;1.10;;;0.70;;
1719;SDS011;857;52.872;9.692;2023-04-03T09:55:14;1.40;;;0.63;;
1719;SDS011;857;52.872;9.692;2023-04-03T09:57:42;1.23;;;0.80;;
1719;SDS011;857;52.872;9.692;2023-04-03T10:00:19;1.50;;;0.80;;
1719;SDS011;857;52.872;9.692;2023-04-03T10:02:48;3.27;;;0.67;;
1719;SDS011;857;52.872;9.692;2023-04-03T10:05:27;2.23;;;1.00;;
1719;SDS011;857;52.872;9.692;2023-04-03T10:08:21;2.10;;;0.90;;
1719;SDS011;857;52.872;9.692;2023-04-03T10:11:06;1.00;;;0.57;;
1719;SDS011;857;52.872;9.692;2023-04-03T10:13:36;1.83;;;1.00;;
1719;SDS011;857;52.872;9.692;2023-04-03T10:16:19;1.87;;;0.60;;
1719;SDS011;857;52.872;9.692;2023-04-03T10:18:49;0.83;;;0.60;;
1719;SDS011;857;52.872;9.692;2023-04-03T10:21:24;1.40;;;0.70;;
1719;SDS011;857;52.872;9.692;2023-04-03T10:23:59;1.07;;;0.93;;
1719;SDS011;857;52.872;9.692;2023-04-03T10:26:32;0.97;;;0.67;;
1719;SDS011;857;52.872;9.692;2023-04-03T10:29:09;1.30;;;0.57;;
1719;SDS011;857;52.872;9.692;2023-04-03T10:31:44;1.27;;;0.80;;
1719;SDS011;857;52.872;9.692;2023-04-03T10:34:27;0.73;;;0.47;;
1719;SDS011;857;52.872;9.692;2023-04-03T10:36:59;1.53;;;0.67;;
1719;SDS011;857;52.872;9.692;2023-04-03T10:39:30;1.10;;;0.50;;
1719;SDS011;857;52.872;9.692;2023-04-03T10:42:02;0.70;;;0.60;;
1719;SDS011;857;52.872;9.692;2023-04-03T10:44:39;1.53;;;0.70;;
1719;SDS011;857;52.872;9.692;2023-04-03T10:47:13;1.27;;;0.50;;
1719;SDS011;857;52.872;9.692;2023-04-03T10:49:48;0.80;;;0.50;;
1719;SDS011;857;52.872;9.692;2023-04-03T10:52:20;1.53;;;0.40;;
1719;SDS011;857;52.872;9.692;2023-04-03T10:54:54;1.40;;;0.60;;
1719;SDS011;857;52.872;9.692;2023-04-03T10:57:27;1.27;;;0.73;;
1719;SDS011;857;52.872;9.692;2023-04-03T11:00:00;1.90;;;0.63;;
1719;SDS011;857;52.872;9.692;2023-04-03T11:02:33;1.03;;;0.60;;
1719;SDS011;857;52.872;9.692;2023-04-03T11:05:04;2.93;;;1.00;;
1719;SDS011;857;52.872;9.692;2023-04-03T11:07:37;1.77;;;0.60;;
1719;SDS011;857;52.872;9.692;2023-04-03T11:10:13;1.00;;;0.63;;
1719;SDS011;857;52.872;9.692;2023-04-03T11:12:48;1.37;;;0.77;;
1719;SDS011;857;52.872;9.692;2023-04-03T11:15:17;0.93;;;0.73;;
1719;SDS011;857;52.872;9.692;2023-04-03T11:17:53;1.17;;;0.63;;
1719;SDS011;857;52.872;9.692;2023-04-03T11:20:24;0.97;;;0.57;;
1719;SDS011;857;52.872;9.692;2023-04-03T11:23:00;1.70;;;0.63;;
1719;SDS011;857;52.872;9.692;2023-04-03T11:25:30;1.53;;;0.87;;
1719;SDS011;857;52.872;9.692;2023-04-03T11:27:59;1.10;;;0.73;;
1719;SDS011;857;52.872;9.692;2023-04-03T11:30:30;2.30;;;0.63;;
1719;SDS011;857;52.872;9.692;2023-04-03T11:33:15;1.43;;;0.97;;
1719;SDS011;857;52.872;9.692;2023-04-03T11:35:44;1.20;;;0.63;;
1719;SDS011;857;52.872;9.692;2023-04-03T11:38:15;2.03;;;0.57;;
1719;SDS011;857;52.872;9.692;2023-04-03T11:40:45;2.00;;;0.60;;
1719;SDS011;857;52.872;9.692;2023-04-03T11:43:20;1.13;;;0.70;;
1719;SDS011;857;52.872;9.692;2023-04-03T11:45:55;0.50;;;0.40;;
1719;SDS011;857;52.872;9.692;2023-04-03T11:48:47;2.20;;;0.80;;
1719;SDS011;857;52.872;9.692;2023-04-03T11:56:44;1.77;;;0.50;;
1719;SDS011;857;52.872;9.692;2023-04-03T11:59:24;0.63;;;0.50;;
1719;SDS011;857;52.872;9.692;2023-04-03T12:01:54;2.20;;;0.90;;
1719;SDS011;857;52.872;9.692;2023-04-03T12:04:25;2.53;;;0.77;;
1719;SDS011;857;52.872;9.692;2023-04-03T12:12:30;0.93;;;0.57;;
1719;SDS011;857;52.872;9.692;2023-04-03T12:15:11;1.70;;;0.70;;
1719;SDS011;857;52.872;9.692;2023-04-03T12:17:39;1.07;;;0.70;;
1719;SDS011;857;52.872;9.692;2023-04-03T12:25:48;4.90;;;0.57;;
1719;SDS011;857;52.872;9.692;2023-04-03T12:28:17;0.60;;;0.40;;
1719;SDS011;857;52.872;9.692;2023-04-03T12:30:45;1.83;;;0.60;;
1719;SDS011;857;52.872;9.692;2023-04-03T12:33:24;1.17;;;0.50;;
1719;SDS011;857;52.872;9.692;2023-04-03T12:35:58;0.83;;;0.70;;
1719;SDS011;857;52.872;9.692;2023-04-03T12:38:41;6.30;;;1.00;;
1719;SDS011;857;52.872;9.692;2023-04-03T12:41:19;3.50;;;1.07;;
1719;SDS011;857;52.872;9.692;2023-04-03T12:43:51;7.33;;;1.70;;
1719;SDS011;857;52.872;9.692;2023-04-03T12:46:23;13.97;;;1.83;;
1719;SDS011;857;52.872;9.692;2023-04-03T12:48:52;3.13;;;1.10;;
1719;SDS011;857;52.872;9.692;2023-04-03T12:51:21;14.87;;;1.50;;
1719;SDS011;857;52.872;9.692;2023-04-03T12:53:50;6.17;;;1.50;;
1719;SDS011;857;52.872;9.692;2023-04-03T12:56:23;14.13;;;1.83;;
1719;SDS011;857;52.872;9.692;2023-04-03T12:58:52;8.80;;;1.50;;
1719;SDS011;857;52.872;9.692;2023-04-03T13:01:20;2.23;;;0.97;;
1719;SDS011;857;52.872;9.692;2023-04-03T13:03:50;5.27;;;1.03;;
1719;SDS011;857;52.872;9.692;2023-04-03T13:06:19;1.63;;;0.77;;
1719;SDS011;857;52.872;9.692;2023-04-03T13:08:49;4.17;;;0.90;;
1719;SDS011;857;52.872;9.692;2023-04-03T13:11:17;7.37;;;1.23;;
1719;SDS011;857;52.872;9.692;2023-04-03T13:14:00;13.80;;;2.50;;
1719;SDS011;857;52.872;9.692;2023-04-03T13:16:30;4.63;;;1.00;;
1719;SDS011;857;52.872;9.692;2023-04-03T13:18:58;3.80;;;0.73;;
1719;SDS011;857;52.872;9.692;2023-04-03T13:21:27;2.70;;;1.03;;
1719;SDS011;857;52.872;9.692;2023-04-03T13:23:57;1.90;;;0.90;;
1719;SDS011;857;52.872;9.692;2023-04-03T13:26:27;7.37;;;1.20;;
1719;SDS011;857;52.872;9.692;2023-04-03T13:28:56;2.10;;;1.40;;
1719;SDS011;857;52.872;9.692;2023-04-03T13:31:27;3.13;;;1.50;;
1719;SDS011;857;52.872;9.692;2023-04-03T13:33:58;3.13;;;0.93;;
1719;SDS011;857;52.872;9.692;2023-04-03T13:36:30;2.37;;;1.20;;
1719;SDS011;857;52.872;9.692;2023-04-03T13:38:59;2.80;;;0.80;;
1719;SDS011;857;52.872;9.692;2023-04-03T13:41:29;2.10;;;1.20;;
1719;SDS011;857;52.872;9.692;2023-04-03T13:44:15;6.53;;;1.13;;
1719;SDS011;857;52.872;9.692;2023-04-03T13:46:44;3.90;;;1.57;;
1719;SDS011;857;52.872;9.692;2023-04-03T13:49:19;4.07;;;0.90;;
1719;SDS011;857;52.872;9.692;2023-04-03T13:51:47;2.07;;;0.87;;
1719;SDS011;857;52.872;9.692;2023-04-03T13:54:19;1.93;;;0.87;;
1719;SDS011;857;52.872;9.692;2023-04-03T13:56:52;2.90;;;0.90;;
1719;SDS011;857;52.872;9.692;2023-04-03T13:59:21;4.47;;;0.93;;
1719;SDS011;857;52.872;9.692;2023-04-03T14:01:51;1.13;;;0.67;;
1719;SDS011;857;52.872;9.692;2023-04-03T14:04:20;6.20;;;1.10;;
1719;SDS011;857;52.872;9.692;2023-04-03T14:06:48;4.17;;;0.90;;
1719;SDS011;857;52.872;9.692;2023-04-03T14:09:17;2.53;;;0.63;;
1719;SDS011;857;52.872;9.692;2023-04-03T14:11:46;1.13;;;0.60;;
1719;SDS011;857;52.872;9.692;2023-04-03T14:14:15;3.27;;;1.43;;
1719;SDS011;857;52.872;9.692;2023-04-03T14:16:44;4.83;;;1.90;;
1719;SDS011;857;52.872;9.692;2023-04-03T14:19:21;4.80;;;3.03;;
1719;SDS011;857;52.872;9.692;2023-04-03T14:21:50;2.20;;;1.57;;
1719;SDS011;857;52.872;9.692;2023-04-03T14:24:19;2.23;;;1.27;;
1719;SDS011;857;52.872;9.692;2023-04-03T14:26:47;2.30;;;1.10;;
1719;SDS011;857;52.872;9.692;2023-04-03T14:29:16;1.80;;;1.20;;
1719;SDS011;857;52.872;9.692;2023-04-03T14:31:44;3.03;;;1.10;;
1719;SDS011;857;52.872;9.692;2023-04-03T14:34:12;1.53;;;0.90;;
1719;SDS011;857;52.872;9.692;2023-04-03T14:36:42;2.60;;;1.20;;
1719;SDS011;857;52.872;9.692;2023-04-03T14:39:11;2.50;;;1.07;;
1719;SDS011;857;52.872;9.692;2023-04-03T14:41:43;4.40;;;1.10;;
1719;SDS011;857;52.872;9.692;2023-04-03T14:44:11;4.23;;;1.80;;
1719;SDS011;857;52.872;9.692;2023-04-03T14:46:40;1.73;;;1.10;;
1719;SDS011;857;52.872;9.692;2023-04-03T14:49:10;11.67;;;4.10;;
1719;SDS011;857;52.872;9.692;2023-04-03T14:51:39;2.27;;;1.10;;
1719;SDS011;857;52.872;9.692;2023-04-03T14:54:11;2.60;;;1.50;;
1719;SDS011;857;52.872;9.692;2023-04-03T14:56:40;3.07;;;1.20;;
1719;SDS011;857;52.872;9.692;2023-04-03T14:59:08;3.10;;;1.17;;
1719;SDS011;857;52.872;9.692;2023-04-03T15:01:37;1.43;;;1.13;;
1719;SDS011;857;52.872;9.692;2023-04-03T15:04:05;3.03;;;1.00;;
1719;SDS011;857;52.872;9.692;2023-04-03T15:06:33;1.20;;;0.80;;
1719;SDS011;857;52.872;9.692;2023-04-03T15:09:01;3.77;;;1.30;;
1719;SDS011;857;52.872;9.692;2023-04-03T15:11:30;1.57;;;1.00;;
1719;SDS011;857;52.872;9.692;2023-04-03T15:13:59;1.87;;;1.13;;
1719;SDS011;857;52.872;9.692;2023-04-03T15:16:26;2.53;;;1.47;;
1719;SDS011;857;52.872;9.692;2023-04-03T15:18:54;2.50;;;0.80;;
1719;SDS011;857;52.872;9.692;2023-04-03T15:21:22;5.40;;;2.63;;
1719;SDS011;857;52.872;9.692;2023-04-03T15:23:50;2.97;;;1.13;;
1719;SDS011;857;52.872;9.692;2023-04-03T15:26:18;2.40;;;0.87;;
1719;SDS011;857;52.872;9.692;2023-04-03T15:28:47;2.33;;;1.20;;
1719;SDS011;857;52.872;9.692;2023-04-03T15:31:15;2.67;;;1.20;;
1719;SDS011;857;52.872;9.692;2023-04-03T15:33:43;4.63;;;2.37;;
1719;SDS011;857;52.872;9.692;2023-04-03T15:36:10;1.70;;;1.20;;
1719;SDS011;857;52.872;9.692;2023-04-03T15:38:38;2.23;;;1.10;;
1719;SDS011;857;52.872;9.692;2023-04-03T15:41:06;5.30;;;1.30;;
1719;SDS011;857;52.872;9.692;2023-04-03T15:43:34;2.33;;;1.30;;
1719;SDS011;857;52.872;9.692;2023-04-03T15:46:03;4.30;;;1.83;;
1719;SDS011;857;52.872;9.692;2023-04-03T15:48:31;1.80;;;1.00;;
1719;SDS011;857;52.872;9.692;2023-04-03T15:50:59;3.73;;;1.17;;
1719;SDS011;857;52.872;9.692;2023-04-03T15:53:28;2.50;;;1.10;;
1719;SDS011;857;52.872;9.692;2023-04-03T15:55:56;2.03;;;1.20;;
1719;SDS011;857;52.872;9.692;2023-04-03T15:58:24;3.80;;;1.67;;
1719;SDS011;857;52.872;9.692;2023-04-03T16:00:52;2.70;;;0.97;;
1719;SDS011;857;52.872;9.692;2023-04-03T16:03:21;5.00;;;1.40;;